To NAV CANADA Home Page Login to a new session Search on AWWS site Feedback and Comments Disclaimer Vers la page française équivalente Tips FAQ What's new on the site To the Forecasts and Observations / NOTAM section To "File a Flight Plan" website Publications and other links Update of the User's profile FIC Telephone Numbers My Weather Data Folder Route Weather Data Regional Weather Data Local Weather Data To the Forecasts and Observations / NOTAM section
Request Generated 02/24/2017 at 03:37:12 UTC . Weather information available at that time is displayed.

METAR/TAF

MAYO/YT    

METAR CYMA 240300Z VRB02KT 20SM FEW085 FEW220 M18/M20 A3036 RMK
AS1CI1 SLP347=
METAR CYMA 240200Z VRB02KT 20SM FEW080 M14/M16 A3037 RMK AS1 SLP346=
METAR CYMA 240100Z 30002KT 20SM FEW080 M11/M16 A3036 RMK AS1 AS TR
SLP341=

TAF CYMA 232341Z 2400/2412 VRB03KT P6SM FEW030 SCT090 TEMPO 2400/2403
SCT030 BKN090
FM240300 VRB03KT P6SM SCT040 BKN080 TEMPO 2403/2409 5SM -SN
BKN030
FM240900 VRB03KT 6SM -SN SCT025 OVC040 TEMPO 2409/2412 2SM -SN
FEW008 OVC020
RMK NXT FCST BY 240600Z=
Your time UTC time
Weather data provided by Environment Canada and NAV CANADA